sensor_id;sensor_type;location;lat;lon;timestamp;P1;durP1;ratioP1;P2;durP2;ratioP2
44516;SDS011;30223;17.182;-96.766;2023-03-02T00:00:52;1.75;;;1.13;;
44516;SDS011;30223;17.182;-96.766;2023-03-02T00:03:23;1.98;;;1.40;;
44516;SDS011;30223;17.182;-96.766;2023-03-02T00:05:51;1.83;;;1.15;;
44516;SDS011;30223;17.182;-96.766;2023-03-02T00:08:19;2.45;;;1.23;;
44516;SDS011;30223;17.182;-96.766;2023-03-02T00:10:46;2.00;;;1.20;;
44516;SDS011;30223;17.182;-96.766;2023-03-02T00:13:18;2.25;;;0.80;;
44516;SDS011;30223;17.182;-96.766;2023-03-02T00:15:45;1.63;;;1.13;;
44516;SDS011;30223;17.182;-96.766;2023-03-02T00:18:12;1.38;;;0.82;;
44516;SDS011;30223;17.182;-96.766;2023-03-02T00:20:39;0.85;;;0.85;;
44516;SDS011;30223;17.182;-96.766;2023-03-02T00:23:05;1.85;;;1.23;;
44516;SDS011;30223;17.182;-96.766;2023-03-02T00:25:32;1.95;;;1.17;;
44516;SDS011;30223;17.182;-96.766;2023-03-02T00:28:00;2.47;;;1.02;;
44516;SDS011;30223;17.182;-96.766;2023-03-02T00:30:28;1.85;;;0.95;;
44516;SDS011;30223;17.182;-96.766;2023-03-02T00:32:54;1.15;;;0.70;;
44516;SDS011;30223;17.182;-96.766;2023-03-02T00:35:23;1.80;;;1.15;;
44516;SDS011;30223;17.182;-96.766;2023-03-02T00:37:52;4.28;;;0.88;;
44516;SDS011;30223;17.182;-96.766;2023-03-02T00:40:19;2.60;;;1.10;;
44516;SDS011;30223;17.182;-96.766;2023-03-02T00:42:45;4.20;;;1.17;;
44516;SDS011;30223;17.182;-96.766;2023-03-02T00:45:12;6.57;;;2.65;;
44516;SDS011;30223;17.182;-96.766;2023-03-02T00:47:39;7.05;;;1.65;;
44516;SDS011;30223;17.182;-96.766;2023-03-02T00:50:05;9.25;;;1.98;;
44516;SDS011;30223;17.182;-96.766;2023-03-02T00:52:32;2.55;;;1.48;;
44516;SDS011;30223;17.182;-96.766;2023-03-02T00:54:59;4.88;;;2.05;;
44516;SDS011;30223;17.182;-96.766;2023-03-02T00:57:26;2.58;;;1.75;;
44516;SDS011;30223;17.182;-96.766;2023-03-02T00:59:53;5.57;;;2.10;;
44516;SDS011;30223;17.182;-96.766;2023-03-02T01:02:19;2.72;;;1.80;;
44516;SDS011;30223;17.182;-96.766;2023-03-02T01:04:46;7.13;;;2.50;;
44516;SDS011;30223;17.182;-96.766;2023-03-02T01:07:14;6.13;;;2.20;;
44516;SDS011;30223;17.182;-96.766;2023-03-02T01:09:42;3.78;;;1.98;;
44516;SDS011;30223;17.182;-96.766;2023-03-02T01:12:10;5.32;;;1.63;;
44516;SDS011;30223;17.182;-96.766;2023-03-02T01:14:37;2.90;;;1.92;;
44516;SDS011;30223;17.182;-96.766;2023-03-02T01:17:06;2.78;;;1.95;;
44516;SDS011;30223;17.182;-96.766;2023-03-02T01:19:33;8.82;;;2.40;;
44516;SDS011;30223;17.182;-96.766;2023-03-02T01:22:01;6.30;;;1.92;;
44516;SDS011;30223;17.182;-96.766;2023-03-02T01:24:31;1.98;;;1.67;;
44516;SDS011;30223;17.182;-96.766;2023-03-02T01:26:58;3.58;;;1.67;;
44516;SDS011;30223;17.182;-96.766;2023-03-02T01:29:25;4.78;;;1.80;;
44516;SDS011;30223;17.182;-96.766;2023-03-02T01:31:51;3.30;;;1.88;;
44516;SDS011;30223;17.182;-96.766;2023-03-02T01:34:18;2.85;;;1.40;;
44516;SDS011;30223;17.182;-96.766;2023-03-02T01:36:45;4.43;;;1.85;;
44516;SDS011;30223;17.182;-96.766;2023-03-02T01:39:12;5.85;;;1.75;;
44516;SDS011;30223;17.182;-96.766;2023-03-02T01:41:42;4.32;;;2.65;;
44516;SDS011;30223;17.182;-96.766;2023-03-02T01:46:59;5.00;;;1.80;;
44516;SDS011;30223;17.182;-96.766;2023-03-02T01:49:26;2.83;;;1.70;;
44516;SDS011;30223;17.182;-96.766;2023-03-02T01:51:53;3.05;;;1.92;;
44516;SDS011;30223;17.182;-96.766;2023-03-02T01:54:20;4.10;;;1.75;;
44516;SDS011;30223;17.182;-96.766;2023-03-02T01:56:49;5.50;;;2.70;;
44516;SDS011;30223;17.182;-96.766;2023-03-02T01:59:20;4.70;;;2.28;;
44516;SDS011;30223;17.182;-96.766;2023-03-02T02:01:51;2.88;;;2.30;;
44516;SDS011;30223;17.182;-96.766;2023-03-02T02:04:22;4.68;;;2.00;;
44516;SDS011;30223;17.182;-96.766;2023-03-02T02:06:52;6.43;;;2.53;;
44516;SDS011;30223;17.182;-96.766;2023-03-02T02:09:21;5.05;;;2.78;;
44516;SDS011;30223;17.182;-96.766;2023-03-02T02:11:50;14.65;;;2.55;;
44516;SDS011;30223;17.182;-96.766;2023-03-02T02:14:17;3.05;;;2.25;;
44516;SDS011;30223;17.182;-96.766;2023-03-02T02:16:43;4.32;;;2.28;;
44516;SDS011;30223;17.182;-96.766;2023-03-02T02:21:55;2.33;;;1.92;;
44516;SDS011;30223;17.182;-96.766;2023-03-02T02:24:31;2.85;;;1.92;;
44516;SDS011;30223;17.182;-96.766;2023-03-02T02:27:07;4.43;;;2.72;;
44516;SDS011;30223;17.182;-96.766;2023-03-02T02:29:40;3.95;;;2.28;;
44516;SDS011;30223;17.182;-96.766;2023-03-02T02:35:00;2.95;;;2.20;;
44516;SDS011;30223;17.182;-96.766;2023-03-02T02:40:04;4.47;;;1.95;;
44516;SDS011;30223;17.182;-96.766;2023-03-02T02:42:37;10.20;;;5.50;;
44516;SDS011;30223;17.182;-96.766;2023-03-02T02:45:28;9.25;;;3.25;;
44516;SDS011;30223;17.182;-96.766;2023-03-02T02:47:55;6.88;;;3.20;;
44516;SDS011;30223;17.182;-96.766;2023-03-02T02:50:30;4.57;;;3.38;;
44516;SDS011;30223;17.182;-96.766;2023-03-02T02:53:12;7.32;;;2.65;;
44516;SDS011;30223;17.182;-96.766;2023-03-02T02:55:47;12.10;;;4.20;;
44516;SDS011;30223;17.182;-96.766;2023-03-02T03:00:45;7.15;;;3.05;;
44516;SDS011;30223;17.182;-96.766;2023-03-02T03:03:23;16.42;;;3.97;;
44516;SDS011;30223;17.182;-96.766;2023-03-02T03:05:56;8.35;;;3.72;;
44516;SDS011;30223;17.182;-96.766;2023-03-02T03:11:26;6.00;;;2.70;;
44516;SDS011;30223;17.182;-96.766;2023-03-02T03:14:06;8.70;;;3.20;;
44516;SDS011;30223;17.182;-96.766;2023-03-02T03:16:39;8.25;;;2.72;;
44516;SDS011;30223;17.182;-96.766;2023-03-02T03:22:05;7.40;;;3.13;;
44516;SDS011;30223;17.182;-96.766;2023-03-02T03:24:33;4.85;;;3.10;;
44516;SDS011;30223;17.182;-96.766;2023-03-02T03:27:00;6.18;;;4.43;;
44516;SDS011;30223;17.182;-96.766;2023-03-02T03:29:29;7.50;;;4.13;;
44516;SDS011;30223;17.182;-96.766;2023-03-02T03:31:58;6.57;;;2.88;;
44516;SDS011;30223;17.182;-96.766;2023-03-02T03:34:25;4.47;;;3.33;;
44516;SDS011;30223;17.182;-96.766;2023-03-02T03:36:53;7.40;;;2.75;;
44516;SDS011;30223;17.182;-96.766;2023-03-02T03:39:29;9.98;;;2.97;;
44516;SDS011;30223;17.182;-96.766;2023-03-02T03:41:56;5.63;;;3.65;;
44516;SDS011;30223;17.182;-96.766;2023-03-02T03:44:22;7.38;;;2.92;;
44516;SDS011;30223;17.182;-96.766;2023-03-02T03:46:49;4.50;;;3.08;;
44516;SDS011;30223;17.182;-96.766;2023-03-02T03:49:16;4.57;;;2.83;;
44516;SDS011;30223;17.182;-96.766;2023-03-02T03:51:42;3.55;;;2.63;;
44516;SDS011;30223;17.182;-96.766;2023-03-02T03:54:09;5.00;;;2.70;;
44516;SDS011;30223;17.182;-96.766;2023-03-02T03:56:40;2.97;;;2.60;;
44516;SDS011;30223;17.182;-96.766;2023-03-02T03:59:10;3.72;;;2.65;;
44516;SDS011;30223;17.182;-96.766;2023-03-02T04:01:39;8.57;;;2.80;;
44516;SDS011;30223;17.182;-96.766;2023-03-02T04:04:15;3.63;;;2.45;;
44516;SDS011;30223;17.182;-96.766;2023-03-02T04:06:44;6.40;;;2.35;;
44516;SDS011;30223;17.182;-96.766;2023-03-02T04:09:11;5.43;;;2.53;;
44516;SDS011;30223;17.182;-96.766;2023-03-02T04:11:40;3.75;;;2.22;;
44516;SDS011;30223;17.182;-96.766;2023-03-02T04:14:09;4.72;;;2.45;;
44516;SDS011;30223;17.182;-96.766;2023-03-02T04:16:37;5.90;;;2.97;;
44516;SDS011;30223;17.182;-96.766;2023-03-02T04:19:06;9.45;;;2.90;;
44516;SDS011;30223;17.182;-96.766;2023-03-02T04:21:35;7.50;;;2.28;;
44516;SDS011;30223;17.182;-96.766;2023-03-02T04:24:07;7.63;;;3.08;;
44516;SDS011;30223;17.182;-96.766;2023-03-02T04:26:34;5.38;;;2.45;;
44516;SDS011;30223;17.182;-96.766;2023-03-02T04:29:02;5.03;;;2.90;;
44516;SDS011;30223;17.182;-96.766;2023-03-02T04:31:29;6.80;;;2.78;;
44516;SDS011;30223;17.182;-96.766;2023-03-02T04:33:59;4.18;;;2.53;;
44516;SDS011;30223;17.182;-96.766;2023-03-02T04:38:55;6.72;;;2.45;;
44516;SDS011;30223;17.182;-96.766;2023-03-02T04:41:22;5.07;;;2.33;;
44516;SDS011;30223;17.182;-96.766;2023-03-02T04:43:48;5.75;;;2.00;;
44516;SDS011;30223;17.182;-96.766;2023-03-02T04:46:21;4.72;;;2.17;;
44516;SDS011;30223;17.182;-96.766;2023-03-02T04:48:49;3.58;;;2.00;;
44516;SDS011;30223;17.182;-96.766;2023-03-02T04:51:17;6.78;;;2.83;;
44516;SDS011;30223;17.182;-96.766;2023-03-02T04:53:53;5.55;;;2.80;;
44516;SDS011;30223;17.182;-96.766;2023-03-02T04:56:21;4.90;;;2.30;;
44516;SDS011;30223;17.182;-96.766;2023-03-02T04:58:48;8.52;;;2.50;;
44516;SDS011;30223;17.182;-96.766;2023-03-02T05:01:15;6.35;;;1.98;;
44516;SDS011;30223;17.182;-96.766;2023-03-02T05:03:43;4.32;;;2.22;;
44516;SDS011;30223;17.182;-96.766;2023-03-02T05:06:11;2.80;;;2.05;;
44516;SDS011;30223;17.182;-96.766;2023-03-02T05:08:38;5.32;;;2.58;;
44516;SDS011;30223;17.182;-96.766;2023-03-02T05:11:05;3.47;;;2.00;;
44516;SDS011;30223;17.182;-96.766;2023-03-02T05:13:33;3.03;;;2.03;;
44516;SDS011;30223;17.182;-96.766;2023-03-02T05:16:00;2.92;;;2.08;;
44516;SDS011;30223;17.182;-96.766;2023-03-02T05:18:27;3.47;;;1.80;;
44516;SDS011;30223;17.182;-96.766;2023-03-02T05:20:53;5.22;;;2.83;;
44516;SDS011;30223;17.182;-96.766;2023-03-02T05:23:21;8.02;;;2.05;;
44516;SDS011;30223;17.182;-96.766;2023-03-02T05:25:51;6.88;;;2.30;;
44516;SDS011;30223;17.182;-96.766;2023-03-02T05:28:20;8.38;;;2.50;;
44516;SDS011;30223;17.182;-96.766;2023-03-02T05:30:48;4.85;;;2.53;;
44516;SDS011;30223;17.182;-96.766;2023-03-02T05:33:15;3.33;;;2.38;;
44516;SDS011;30223;17.182;-96.766;2023-03-02T05:35:42;5.63;;;2.25;;
44516;SDS011;30223;17.182;-96.766;2023-03-02T05:38:09;6.35;;;2.67;;
44516;SDS011;30223;17.182;-96.766;2023-03-02T05:40:37;8.35;;;2.42;;
44516;SDS011;30223;17.182;-96.766;2023-03-02T05:43:09;3.40;;;1.88;;
44516;SDS011;30223;17.182;-96.766;2023-03-02T05:45:43;4.13;;;2.65;;
44516;SDS011;30223;17.182;-96.766;2023-03-02T05:48:11;5.63;;;1.98;;
44516;SDS011;30223;17.182;-96.766;2023-03-02T05:50:38;4.25;;;2.30;;
44516;SDS011;30223;17.182;-96.766;2023-03-02T05:53:05;3.85;;;2.63;;
44516;SDS011;30223;17.182;-96.766;2023-03-02T05:55:32;3.05;;;2.33;;
44516;SDS011;30223;17.182;-96.766;2023-03-02T05:58:10;3.00;;;1.75;;
44516;SDS011;30223;17.182;-96.766;2023-03-02T06:00:41;5.20;;;2.15;;
44516;SDS011;30223;17.182;-96.766;2023-03-02T06:03:08;3.45;;;1.85;;
44516;SDS011;30223;17.182;-96.766;2023-03-02T06:05:35;7.70;;;2.20;;
44516;SDS011;30223;17.182;-96.766;2023-03-02T06:08:02;3.25;;;2.92;;
44516;SDS011;30223;17.182;-96.766;2023-03-02T06:10:29;2.97;;;2.10;;
44516;SDS011;30223;17.182;-96.766;2023-03-02T06:12:56;5.80;;;1.85;;
44516;SDS011;30223;17.182;-96.766;2023-03-02T06:15:23;2.83;;;2.17;;
44516;SDS011;30223;17.182;-96.766;2023-03-02T06:17:54;3.65;;;2.75;;
44516;SDS011;30223;17.182;-96.766;2023-03-02T06:20:22;3.10;;;2.10;;
44516;SDS011;30223;17.182;-96.766;2023-03-02T06:22:49;3.15;;;2.05;;
44516;SDS011;30223;17.182;-96.766;2023-03-02T06:25:17;2.40;;;2.10;;
44516;SDS011;30223;17.182;-96.766;2023-03-02T06:27:46;3.65;;;2.22;;
44516;SDS011;30223;17.182;-96.766;2023-03-02T06:30:21;3.47;;;1.77;;
44516;SDS011;30223;17.182;-96.766;2023-03-02T06:32:50;3.50;;;1.90;;
44516;SDS011;30223;17.182;-96.766;2023-03-02T06:35:16;4.57;;;1.70;;
44516;SDS011;30223;17.182;-96.766;2023-03-02T06:37:43;6.60;;;2.40;;
44516;SDS011;30223;17.182;-96.766;2023-03-02T06:40:10;3.55;;;1.98;;
44516;SDS011;30223;17.182;-96.766;2023-03-02T06:42:38;6.15;;;2.17;;
44516;SDS011;30223;17.182;-96.766;2023-03-02T06:45:05;2.83;;;1.98;;
44516;SDS011;30223;17.182;-96.766;2023-03-02T06:47:33;5.80;;;1.98;;
44516;SDS011;30223;17.182;-96.766;2023-03-02T06:50:00;5.30;;;2.05;;
44516;SDS011;30223;17.182;-96.766;2023-03-02T06:52:27;4.72;;;2.38;;
44516;SDS011;30223;17.182;-96.766;2023-03-02T06:54:53;3.33;;;2.13;;
44516;SDS011;30223;17.182;-96.766;2023-03-02T06:57:20;4.53;;;1.70;;
44516;SDS011;30223;17.182;-96.766;2023-03-02T06:59:48;4.65;;;1.98;;
44516;SDS011;30223;17.182;-96.766;2023-03-02T07:02:14;3.03;;;1.60;;
44516;SDS011;30223;17.182;-96.766;2023-03-02T07:04:41;4.07;;;1.58;;
44516;SDS011;30223;17.182;-96.766;2023-03-02T07:07:07;2.33;;;1.75;;
44516;SDS011;30223;17.182;-96.766;2023-03-02T07:09:34;3.78;;;1.83;;
44516;SDS011;30223;17.182;-96.766;2023-03-02T07:12:01;4.43;;;1.52;;
44516;SDS011;30223;17.182;-96.766;2023-03-02T07:14:28;3.42;;;1.23;;
44516;SDS011;30223;17.182;-96.766;2023-03-02T07:16:54;4.20;;;1.70;;
44516;SDS011;30223;17.182;-96.766;2023-03-02T07:19:21;3.22;;;1.25;;
44516;SDS011;30223;17.182;-96.766;2023-03-02T07:21:48;2.15;;;1.70;;
44516;SDS011;30223;17.182;-96.766;2023-03-02T07:24:15;3.15;;;1.55;;
44516;SDS011;30223;17.182;-96.766;2023-03-02T07:26:41;1.63;;;1.20;;
44516;SDS011;30223;17.182;-96.766;2023-03-02T07:29:08;3.97;;;2.40;;
44516;SDS011;30223;17.182;-96.766;2023-03-02T07:31:34;4.13;;;2.15;;
44516;SDS011;30223;17.182;-96.766;2023-03-02T07:34:01;4.88;;;1.65;;
44516;SDS011;30223;17.182;-96.766;2023-03-02T07:36:28;1.70;;;1.45;;
44516;SDS011;30223;17.182;-96.766;2023-03-02T07:38:54;1.65;;;1.48;;
44516;SDS011;30223;17.182;-96.766;2023-03-02T07:41:21;2.60;;;1.63;;
44516;SDS011;30223;17.182;-96.766;2023-03-02T07:43:48;2.30;;;1.45;;
44516;SDS011;30223;17.182;-96.766;2023-03-02T07:46:15;3.28;;;1.25;;
44516;SDS011;30223;17.182;-96.766;2023-03-02T07:48:41;3.65;;;1.42;;
44516;SDS011;30223;17.182;-96.766;2023-03-02T07:51:08;2.47;;;1.30;;
44516;SDS011;30223;17.182;-96.766;2023-03-02T07:53:34;2.50;;;1.75;;
44516;SDS011;30223;17.182;-96.766;2023-03-02T07:56:04;2.25;;;1.60;;
44516;SDS011;30223;17.182;-96.766;2023-03-02T07:58:32;1.92;;;1.45;;
44516;SDS011;30223;17.182;-96.766;2023-03-02T08:00:59;2.65;;;1.27;;
44516;SDS011;30223;17.182;-96.766;2023-03-02T08:03:25;3.72;;;1.67;;
44516;SDS011;30223;17.182;-96.766;2023-03-02T08:05:52;3.53;;;1.58;;
44516;SDS011;30223;17.182;-96.766;2023-03-02T08:08:18;3.28;;;1.52;;
44516;SDS011;30223;17.182;-96.766;2023-03-02T08:10:45;1.75;;;1.42;;
44516;SDS011;30223;17.182;-96.766;2023-03-02T08:13:12;2.53;;;1.80;;
44516;SDS011;30223;17.182;-96.766;2023-03-02T08:15:41;3.40;;;1.98;;
44516;SDS011;30223;17.182;-96.766;2023-03-02T08:18:08;2.03;;;1.10;;
44516;SDS011;30223;17.182;-96.766;2023-03-02T08:20:35;1.65;;;1.40;;
44516;SDS011;30223;17.182;-96.766;2023-03-02T08:23:02;2.15;;;1.30;;
44516;SDS011;30223;17.182;-96.766;2023-03-02T08:25:29;5.38;;;1.35;;
44516;SDS011;30223;17.182;-96.766;2023-03-02T08:27:55;2.88;;;1.20;;
44516;SDS011;30223;17.182;-96.766;2023-03-02T08:30:22;3.58;;;1.75;;
44516;SDS011;30223;17.182;-96.766;2023-03-02T08:32:49;2.45;;;1.45;;
44516;SDS011;30223;17.182;-96.766;2023-03-02T08:35:15;2.58;;;1.33;;
44516;SDS011;30223;17.182;-96.766;2023-03-02T08:37:42;2.47;;;1.55;;
44516;SDS011;30223;17.182;-96.766;2023-03-02T08:40:09;3.17;;;1.80;;
44516;SDS011;30223;17.182;-96.766;2023-03-02T08:42:36;2.30;;;1.65;;
44516;SDS011;30223;17.182;-96.766;2023-03-02T08:45:02;1.92;;;1.65;;
44516;SDS011;30223;17.182;-96.766;2023-03-02T08:47:30;2.53;;;1.33;;
44516;SDS011;30223;17.182;-96.766;2023-03-02T08:49:56;3.45;;;1.05;;
44516;SDS011;30223;17.182;-96.766;2023-03-02T08:52:25;2.70;;;2.40;;
44516;SDS011;30223;17.182;-96.766;2023-03-02T08:54:52;1.77;;;1.38;;
44516;SDS011;30223;17.182;-96.766;2023-03-02T08:57:19;1.83;;;1.25;;
44516;SDS011;30223;17.182;-96.766;2023-03-02T08:59:45;1.42;;;1.15;;
44516;SDS011;30223;17.182;-96.766;2023-03-02T09:02:12;1.38;;;1.25;;
44516;SDS011;30223;17.182;-96.766;2023-03-02T09:04:38;3.08;;;1.70;;
44516;SDS011;30223;17.182;-96.766;2023-03-02T09:07:05;2.63;;;1.17;;
44516;SDS011;30223;17.182;-96.766;2023-03-02T09:09:32;3.75;;;1.88;;
44516;SDS011;30223;17.182;-96.766;2023-03-02T09:11:58;5.63;;;2.08;;
44516;SDS011;30223;17.182;-96.766;2023-03-02T09:14:25;2.35;;;1.17;;
44516;SDS011;30223;17.182;-96.766;2023-03-02T09:16:52;1.92;;;1.13;;
44516;SDS011;30223;17.182;-96.766;2023-03-02T09:19:18;3.15;;;1.20;;
44516;SDS011;30223;17.182;-96.766;2023-03-02T09:21:45;1.50;;;1.08;;
44516;SDS011;30223;17.182;-96.766;2023-03-02T09:24:12;0.98;;;0.85;;
44516;SDS011;30223;17.182;-96.766;2023-03-02T09:26:38;2.65;;;1.90;;
44516;SDS011;30223;17.182;-96.766;2023-03-02T09:29:05;1.00;;;0.90;;
44516;SDS011;30223;17.182;-96.766;2023-03-02T09:31:32;2.35;;;1.23;;
44516;SDS011;30223;17.182;-96.766;2023-03-02T09:33:59;2.63;;;1.40;;
44516;SDS011;30223;17.182;-96.766;2023-03-02T09:36:26;1.52;;;1.42;;
44516;SDS011;30223;17.182;-96.766;2023-03-02T09:38:53;2.15;;;1.38;;
44516;SDS011;30223;17.182;-96.766;2023-03-02T09:52:32;2.20;;;1.33;;
44516;SDS011;30223;17.182;-96.766;2023-03-02T09:55:18;1.95;;;1.30;;
44516;SDS011;30223;17.182;-96.766;2023-03-02T09:57:48;2.42;;;1.30;;
44516;SDS011;30223;17.182;-96.766;2023-03-02T10:00:23;3.03;;;1.35;;
44516;SDS011;30223;17.182;-96.766;2023-03-02T10:02:54;1.70;;;1.50;;
44516;SDS011;30223;17.182;-96.766;2023-03-02T10:05:33;2.72;;;1.30;;
44516;SDS011;30223;17.182;-96.766;2023-03-02T10:08:10;2.10;;;1.30;;
44516;SDS011;30223;17.182;-96.766;2023-03-02T10:10:42;4.03;;;1.65;;
44516;SDS011;30223;17.182;-96.766;2023-03-02T10:19:09;1.80;;;1.05;;
44516;SDS011;30223;17.182;-96.766;2023-03-02T10:21:41;1.48;;;1.10;;
44516;SDS011;30223;17.182;-96.766;2023-03-02T10:27:23;1.85;;;1.38;;
44516;SDS011;30223;17.182;-96.766;2023-03-02T10:32:53;1.83;;;1.38;;
44516;SDS011;30223;17.182;-96.766;2023-03-02T10:35:25;1.90;;;1.20;;
44516;SDS011;30223;17.182;-96.766;2023-03-02T10:40:58;2.30;;;1.20;;
44516;SDS011;30223;17.182;-96.766;2023-03-02T10:43:47;2.53;;;1.38;;
44516;SDS011;30223;17.182;-96.766;2023-03-02T10:46:17;1.88;;;1.05;;
44516;SDS011;30223;17.182;-96.766;2023-03-02T10:48:48;2.88;;;1.27;;
44516;SDS011;30223;17.182;-96.766;2023-03-02T10:51:30;3.60;;;1.92;;
44516;SDS011;30223;17.182;-96.766;2023-03-02T10:54:07;1.33;;;1.23;;
44516;SDS011;30223;17.182;-96.766;2023-03-02T10:56:42;1.27;;;1.17;;
44516;SDS011;30223;17.182;-96.766;2023-03-02T11:04:39;2.05;;;1.30;;
44516;SDS011;30223;17.182;-96.766;2023-03-02T11:09:56;1.92;;;1.65;;
44516;SDS011;30223;17.182;-96.766;2023-03-02T11:12:29;2.65;;;1.15;;
44516;SDS011;30223;17.182;-96.766;2023-03-02T11:15:01;2.47;;;1.00;;
44516;SDS011;30223;17.182;-96.766;2023-03-02T11:17:29;2.15;;;1.00;;
44516;SDS011;30223;17.182;-96.766;2023-03-02T11:20:01;3.85;;;1.30;;
44516;SDS011;30223;17.182;-96.766;2023-03-02T11:22:35;2.03;;;1.67;;
44516;SDS011;30223;17.182;-96.766;2023-03-02T11:25:15;1.70;;;1.27;;
44516;SDS011;30223;17.182;-96.766;2023-03-02T11:27:58;4.35;;;1.35;;
44516;SDS011;30223;17.182;-96.766;2023-03-02T11:30:44;2.72;;;1.65;;
44516;SDS011;30223;17.182;-96.766;2023-03-02T11:33:20;1.70;;;1.20;;
44516;SDS011;30223;17.182;-96.766;2023-03-02T11:36:05;2.95;;;1.65;;
44516;SDS011;30223;17.182;-96.766;2023-03-02T11:38:40;1.55;;;1.42;;
44516;SDS011;30223;17.182;-96.766;2023-03-02T11:43:52;3.38;;;1.30;;
44516;SDS011;30223;17.182;-96.766;2023-03-02T11:46:23;1.52;;;1.08;;
44516;SDS011;30223;17.182;-96.766;2023-03-02T11:48:56;1.80;;;1.10;;
44516;SDS011;30223;17.182;-96.766;2023-03-02T11:51:28;1.52;;;1.10;;
44516;SDS011;30223;17.182;-96.766;2023-03-02T11:54:04;2.85;;;1.70;;
44516;SDS011;30223;17.182;-96.766;2023-03-02T11:56:40;2.67;;;1.13;;
44516;SDS011;30223;17.182;-96.766;2023-03-02T11:59:13;1.60;;;1.20;;
44516;SDS011;30223;17.182;-96.766;2023-03-02T12:01:44;1.63;;;1.15;;
44516;SDS011;30223;17.182;-96.766;2023-03-02T12:07:02;2.22;;;1.42;;
44516;SDS011;30223;17.182;-96.766;2023-03-02T12:09:41;1.05;;;0.90;;
44516;SDS011;30223;17.182;-96.766;2023-03-02T12:14:59;2.13;;;1.52;;
44516;SDS011;30223;17.182;-96.766;2023-03-02T12:22:33;1.83;;;1.33;;
44516;SDS011;30223;17.182;-96.766;2023-03-02T12:25:03;1.30;;;1.20;;
44516;SDS011;30223;17.182;-96.766;2023-03-02T12:27:36;1.95;;;1.20;;
44516;SDS011;30223;17.182;-96.766;2023-03-02T12:30:09;2.92;;;1.40;;
44516;SDS011;30223;17.182;-96.766;2023-03-02T12:33:00;1.45;;;1.35;;
44516;SDS011;30223;17.182;-96.766;2023-03-02T12:35:40;1.98;;;1.40;;
44516;SDS011;30223;17.182;-96.766;2023-03-02T12:46:44;2.28;;;1.50;;
44516;SDS011;30223;17.182;-96.766;2023-03-02T12:52:17;3.70;;;1.45;;
44516;SDS011;30223;17.182;-96.766;2023-03-02T12:55:00;2.45;;;1.58;;
44516;SDS011;30223;17.182;-96.766;2023-03-02T12:57:27;2.17;;;1.17;;
44516;SDS011;30223;17.182;-96.766;2023-03-02T12:59:55;4.20;;;1.60;;
44516;SDS011;30223;17.182;-96.766;2023-03-02T13:05:01;2.97;;;1.60;;
44516;SDS011;30223;17.182;-96.766;2023-03-02T13:16:01;1.25;;;1.15;;
44516;SDS011;30223;17.182;-96.766;2023-03-02T13:18:31;2.55;;;2.03;;
44516;SDS011;30223;17.182;-96.766;2023-03-02T13:23:28;3.10;;;1.50;;
44516;SDS011;30223;17.182;-96.766;2023-03-02T13:25:57;3.28;;;1.55;;
44516;SDS011;30223;17.182;-96.766;2023-03-02T13:28:30;2.55;;;1.77;;
44516;SDS011;30223;17.182;-96.766;2023-03-02T13:33:45;3.28;;;1.77;;
44516;SDS011;30223;17.182;-96.766;2023-03-02T13:36:17;3.80;;;2.03;;
44516;SDS011;30223;17.182;-96.766;2023-03-02T13:38:47;1.60;;;1.20;;
44516;SDS011;30223;17.182;-96.766;2023-03-02T13:41:22;2.50;;;2.13;;
44516;SDS011;30223;17.182;-96.766;2023-03-02T13:43:50;4.78;;;1.75;;
44516;SDS011;30223;17.182;-96.766;2023-03-02T13:48:57;2.08;;;1.40;;
44516;SDS011;30223;17.182;-96.766;2023-03-02T13:51:32;2.75;;;1.48;;
44516;SDS011;30223;17.182;-96.766;2023-03-02T13:54:03;2.42;;;1.60;;
44516;SDS011;30223;17.182;-96.766;2023-03-02T13:56:45;2.80;;;2.03;;
44516;SDS011;30223;17.182;-96.766;2023-03-02T13:59:13;2.13;;;1.75;;
44516;SDS011;30223;17.182;-96.766;2023-03-02T14:01:42;2.53;;;1.55;;
44516;SDS011;30223;17.182;-96.766;2023-03-02T14:04:12;2.95;;;1.58;;
44516;SDS011;30223;17.182;-96.766;2023-03-02T14:06:45;6.72;;;2.13;;
44516;SDS011;30223;17.182;-96.766;2023-03-02T14:11:39;9.00;;;2.30;;
44516;SDS011;30223;17.182;-96.766;2023-03-02T14:14:19;4.32;;;2.08;;
44516;SDS011;30223;17.182;-96.766;2023-03-02T14:16:48;3.60;;;1.90;;
44516;SDS011;30223;17.182;-96.766;2023-03-02T14:19:15;3.15;;;2.33;;
44516;SDS011;30223;17.182;-96.766;2023-03-02T14:21:43;3.15;;;2.30;;
44516;SDS011;30223;17.182;-96.766;2023-03-02T14:24:10;3.22;;;1.90;;
44516;SDS011;30223;17.182;-96.766;2023-03-02T14:26:38;4.70;;;2.03;;
44516;SDS011;30223;17.182;-96.766;2023-03-02T14:31:52;3.30;;;1.80;;
44516;SDS011;30223;17.182;-96.766;2023-03-02T14:34:24;2.53;;;2.00;;
44516;SDS011;30223;17.182;-96.766;2023-03-02T14:36:52;3.03;;;1.67;;
44516;SDS011;30223;17.182;-96.766;2023-03-02T14:41:59;3.90;;;1.95;;
44516;SDS011;30223;17.182;-96.766;2023-03-02T14:44:26;3.05;;;2.13;;
44516;SDS011;30223;17.182;-96.766;2023-03-02T14:46:53;3.08;;;2.00;;
44516;SDS011;30223;17.182;-96.766;2023-03-02T14:49:21;3.35;;;2.03;;
44516;SDS011;30223;17.182;-96.766;2023-03-02T14:51:53;4.10;;;1.83;;
44516;SDS011;30223;17.182;-96.766;2023-03-02T14:54:20;3.08;;;2.20;;
44516;SDS011;30223;17.182;-96.766;2023-03-02T14:56:47;3.80;;;1.55;;
44516;SDS011;30223;17.182;-96.766;2023-03-02T14:59:14;1.55;;;1.40;;
44516;SDS011;30223;17.182;-96.766;2023-03-02T15:01:41;7.15;;;2.42;;
44516;SDS011;30223;17.182;-96.766;2023-03-02T15:04:10;2.35;;;1.85;;
44516;SDS011;30223;17.182;-96.766;2023-03-02T15:06:37;7.25;;;1.63;;
44516;SDS011;30223;17.182;-96.766;2023-03-02T15:09:06;2.50;;;1.65;;
44516;SDS011;30223;17.182;-96.766;2023-03-02T15:11:33;1.98;;;1.67;;
44516;SDS011;30223;17.182;-96.766;2023-03-02T15:13:59;2.97;;;1.95;;
44516;SDS011;30223;17.182;-96.766;2023-03-02T15:16:26;3.22;;;1.90;;
44516;SDS011;30223;17.182;-96.766;2023-03-02T15:18:53;5.03;;;2.38;;
44516;SDS011;30223;17.182;-96.766;2023-03-02T15:21:20;4.07;;;1.95;;
44516;SDS011;30223;17.182;-96.766;2023-03-02T15:23:48;3.40;;;1.90;;
44516;SDS011;30223;17.182;-96.766;2023-03-02T15:26:15;3.28;;;2.03;;
44516;SDS011;30223;17.182;-96.766;2023-03-02T15:28:42;2.95;;;1.58;;
44516;SDS011;30223;17.182;-96.766;2023-03-02T15:33:39;2.38;;;1.52;;
44516;SDS011;30223;17.182;-96.766;2023-03-02T15:36:07;3.00;;;1.93;;
44516;SDS011;30223;17.182;-96.766;2023-03-02T15:38:34;1.80;;;1.70;;
44516;SDS011;30223;17.182;-96.766;2023-03-02T15:41:05;2.80;;;1.30;;
44516;SDS011;30223;17.182;-96.766;2023-03-02T15:43:32;3.13;;;1.90;;
44516;SDS011;30223;17.182;-96.766;2023-03-02T15:45:59;3.50;;;1.52;;
44516;SDS011;30223;17.182;-96.766;2023-03-02T15:48:27;2.90;;;1.88;;
44516;SDS011;30223;17.182;-96.766;2023-03-02T15:50:57;3.47;;;1.33;;
44516;SDS011;30223;17.182;-96.766;2023-03-02T15:53:25;2.97;;;1.50;;
44516;SDS011;30223;17.182;-96.766;2023-03-02T15:55:53;3.47;;;1.77;;
44516;SDS011;30223;17.182;-96.766;2023-03-02T15:58:20;2.50;;;1.70;;
44516;SDS011;30223;17.182;-96.766;2023-03-02T16:00:48;2.47;;;1.65;;
44516;SDS011;30223;17.182;-96.766;2023-03-02T16:03:15;1.90;;;1.30;;
44516;SDS011;30223;17.182;-96.766;2023-03-02T16:05:43;3.00;;;1.60;;
44516;SDS011;30223;17.182;-96.766;2023-03-02T16:08:10;3.90;;;1.55;;
44516;SDS011;30223;17.182;-96.766;2023-03-02T16:10:36;2.40;;;1.48;;
44516;SDS011;30223;17.182;-96.766;2023-03-02T16:13:07;2.05;;;1.45;;
44516;SDS011;30223;17.182;-96.766;2023-03-02T16:15:38;3.15;;;1.63;;
44516;SDS011;30223;17.182;-96.766;2023-03-02T16:18:08;2.10;;;1.70;;
44516;SDS011;30223;17.182;-96.766;2023-03-02T16:20:37;2.08;;;1.55;;
44516;SDS011;30223;17.182;-96.766;2023-03-02T16:23:04;2.42;;;1.92;;